首页
METAR-TAF:

METAR-TAF

机场 :

伯明翰-沙特尔斯沃思国际机场

伯明翰, 阿拉巴马州, 美国

纬度: 33-33-56N, 经度: 086-44-42W, 海拔: 196米

当前天气观测

该预报发布于1小时和1分钟前的00:53 UTC
静风
温度 13°C
湿度 72%
气压 1024 hPa
能見度: 16.1公里
散云层高于15000英尺
多云层高于25000英尺

METAR: KBHM 230053Z 00000KT 10SM SCT150 BKN250 13/08 A3023 RMK AO2 SLP234 T01330078

时间: 20:54 (01:54 UTC)

预报

该预报发布于2小时和18分钟前的23:36 UTC
预报有效从23日的 00点(UTC)到 23日的 24点(UTC)
风速3节,风向
能見度: 10公里
散云层高于15000英尺
多云层高于25000英尺
从 23日的 1500点(UTC)
风速4节,风向东北
能見度: 10公里
散云层高于25000英尺

TAF: KBHM 222336Z 2300/2324 09003KT P6SM SCT150 BKN250 FM231500 05004KT P6SM SCT250

超过4000个机场的气象观测和天气预报(METAR&TAF报告)。

可查询的气象台以黄色和红色小点在地图上表示。

将鼠标移到小点上方,可查看气象台名称。

然后点击查看天气观测和预报。

如需切换地图:点击带黑十字的绿色按钮放大地图;点击带横线的绿色按钮缩小地图;或者点击绿色箭头查看邻近地区的地图。


METAR-TAF: